createdAt,value
2022-12-29T00:01:54.139Z,2.53
2022-12-29T00:04:40.694Z,3.00
2022-12-29T00:07:27.233Z,2.47
2022-12-29T00:10:13.971Z,2.40
2022-12-29T00:13:00.497Z,3.20
2022-12-29T00:15:47.202Z,2.50
2022-12-29T00:18:33.747Z,2.60
2022-12-29T00:21:20.380Z,2.87
2022-12-29T00:24:06.946Z,2.53
2022-12-29T00:26:53.510Z,2.80
2022-12-29T00:29:40.045Z,2.33
2022-12-29T00:32:26.574Z,2.70
2022-12-29T00:35:13.103Z,2.50
2022-12-29T00:37:59.658Z,2.47
2022-12-29T00:40:46.178Z,2.63
2022-12-29T00:43:32.719Z,2.20
2022-12-29T00:46:20.236Z,2.20
2022-12-29T00:49:07.019Z,2.47
2022-12-29T00:51:53.639Z,2.40
2022-12-29T00:54:40.217Z,2.40
2022-12-29T00:57:26.703Z,2.33
2022-12-29T01:00:13.263Z,2.40
2022-12-29T01:03:00.816Z,2.63
2022-12-29T01:05:47.452Z,2.07
2022-12-29T01:08:33.989Z,2.30
2022-12-29T01:11:21.198Z,1.70
2022-12-29T01:14:07.673Z,2.03
2022-12-29T01:16:54.294Z,2.00
2022-12-29T01:19:40.835Z,2.03
2022-12-29T01:22:27.420Z,1.90
2022-12-29T01:25:13.947Z,1.57
2022-12-29T01:28:00.648Z,1.60
2022-12-29T01:30:47.184Z,1.67
2022-12-29T01:33:33.739Z,1.70
2022-12-29T01:36:20.728Z,1.70
2022-12-29T01:39:07.292Z,1.50
2022-12-29T01:41:53.971Z,1.70
2022-12-29T01:44:40.523Z,1.80
2022-12-29T01:47:27.064Z,1.60
2022-12-29T01:50:13.573Z,2.07
2022-12-29T01:53:00.934Z,1.40
2022-12-29T01:55:47.427Z,1.90
2022-12-29T01:58:34.001Z,1.70
2022-12-29T02:01:20.899Z,1.87
2022-12-29T02:04:07.557Z,1.97
2022-12-29T02:06:54.073Z,1.57
2022-12-29T02:09:40.607Z,1.70
2022-12-29T02:12:27.132Z,1.70
2022-12-29T02:15:13.626Z,2.20
2022-12-29T02:18:00.966Z,1.80
2022-12-29T02:20:47.482Z,1.90
2022-12-29T02:23:34.107Z,1.47
2022-12-29T02:26:20.601Z,1.30
2022-12-29T02:29:07.158Z,1.30
2022-12-29T02:31:53.998Z,1.30
2022-12-29T02:34:40.615Z,1.40
2022-12-29T02:37:27.180Z,1.70
2022-12-29T02:40:13.666Z,1.30
2022-12-29T02:43:01.058Z,1.40
2022-12-29T02:45:47.616Z,1.30
2022-12-29T02:48:34.191Z,1.47
2022-12-29T02:51:20.707Z,1.20
2022-12-29T02:54:07.264Z,1.40
2022-12-29T02:56:54.031Z,1.30
2022-12-29T02:59:40.559Z,1.30
2022-12-29T03:02:27.375Z,1.13
2022-12-29T03:05:13.970Z,0.90
2022-12-29T03:08:00.920Z,1.07
2022-12-29T03:10:47.453Z,1.33
2022-12-29T03:13:34.032Z,1.33
2022-12-29T03:16:20.697Z,1.10
2022-12-29T03:19:07.315Z,1.07
2022-12-29T03:21:53.976Z,1.37
2022-12-29T03:24:40.563Z,1.03
2022-12-29T03:27:27.088Z,1.33
2022-12-29T03:30:13.761Z,1.20
2022-12-29T03:33:00.257Z,1.20
2022-12-29T03:35:46.828Z,1.10
2022-12-29T03:38:33.341Z,0.87
2022-12-29T03:41:19.897Z,0.83
2022-12-29T03:44:06.454Z,0.93
2022-12-29T03:46:52.963Z,1.20
2022-12-29T03:49:39.517Z,1.27
2022-12-29T03:52:25.998Z,1.03
2022-12-29T03:55:12.554Z,1.20
2022-12-29T03:57:59.123Z,1.43
2022-12-29T04:00:46.667Z,0.90
2022-12-29T04:03:33.275Z,1.20
2022-12-29T04:06:19.847Z,1.10
2022-12-29T04:09:06.370Z,1.13
2022-12-29T04:11:54.086Z,1.00
2022-12-29T04:14:40.619Z,2.00
2022-12-29T04:17:27.093Z,1.10
2022-12-29T04:20:13.649Z,1.30
2022-12-29T04:23:00.902Z,1.30
2022-12-29T04:25:47.482Z,1.17
2022-12-29T04:28:34.178Z,1.40
2022-12-29T04:31:20.994Z,0.80
2022-12-29T04:34:07.535Z,0.57
2022-12-29T04:36:54.095Z,0.70
2022-12-29T04:39:40.611Z,0.73
2022-12-29T04:42:27.138Z,0.60
2022-12-29T04:45:13.659Z,1.80
2022-12-29T04:48:00.735Z,1.13
2022-12-29T04:50:47.254Z,0.90
2022-12-29T04:53:33.794Z,1.20
2022-12-29T04:56:21.342Z,1.33
2022-12-29T04:59:07.853Z,1.13
2022-12-29T05:01:54.558Z,1.03
2022-12-29T05:04:41.222Z,1.10
2022-12-29T05:07:27.744Z,1.07
2022-12-29T05:10:14.302Z,0.87
2022-12-29T05:13:00.931Z,1.03
2022-12-29T05:15:47.514Z,1.00
2022-12-29T05:18:34.068Z,0.80
2022-12-29T05:21:20.639Z,1.10
2022-12-29T05:24:07.162Z,1.00
2022-12-29T05:26:54.206Z,1.00
2022-12-29T05:29:40.732Z,1.17
2022-12-29T05:32:27.299Z,1.10
2022-12-29T05:35:13.843Z,0.73
2022-12-29T05:38:01.129Z,1.10
2022-12-29T05:40:47.657Z,1.40
2022-12-29T05:43:34.263Z,2.10
2022-12-29T05:46:20.931Z,1.13
2022-12-29T05:49:07.476Z,1.10
2022-12-29T05:51:54.029Z,1.20
2022-12-29T05:54:40.558Z,1.00
2022-12-29T05:57:27.307Z,0.90
2022-12-29T06:00:13.811Z,1.00
2022-12-29T06:03:00.525Z,0.80
2022-12-29T06:05:47.302Z,1.00
2022-12-29T06:08:33.925Z,1.00
2022-12-29T06:11:20.487Z,1.10
2022-12-29T06:14:07.023Z,1.07
2022-12-29T06:16:53.796Z,0.90
2022-12-29T06:19:40.374Z,1.00
2022-12-29T06:22:26.853Z,0.90
2022-12-29T06:25:13.387Z,0.90
2022-12-29T06:28:00.752Z,0.97
2022-12-29T06:30:48.305Z,0.90
2022-12-29T06:33:34.882Z,1.00
2022-12-29T06:36:21.427Z,1.30
2022-12-29T06:39:07.968Z,0.87
2022-12-29T06:41:54.498Z,1.20
2022-12-29T06:44:41.070Z,1.13
2022-12-29T06:47:27.595Z,1.00
2022-12-29T06:50:14.256Z,1.10
2022-12-29T06:53:00.822Z,1.13
2022-12-29T06:55:47.402Z,1.10
2022-12-29T06:58:33.950Z,1.50
2022-12-29T07:01:20.576Z,1.63
2022-12-29T07:04:07.199Z,1.67
2022-12-29T07:06:53.763Z,2.00
2022-12-29T07:09:40.295Z,1.37
2022-12-29T07:12:26.859Z,1.50
2022-12-29T07:15:13.399Z,1.10
2022-12-29T07:18:00.554Z,0.90
2022-12-29T07:20:47.080Z,1.40
2022-12-29T07:23:33.637Z,1.50
2022-12-29T07:26:20.981Z,2.30
2022-12-29T07:29:07.555Z,2.40
2022-12-29T07:31:54.158Z,4.90
2022-12-29T07:34:40.832Z,2.17
2022-12-29T07:37:27.370Z,1.40
2022-12-29T07:40:13.933Z,1.50
2022-12-29T07:43:00.711Z,2.57
2022-12-29T07:45:47.295Z,1.33
2022-12-29T07:48:34.970Z,1.30
2022-12-29T07:51:21.539Z,1.60
2022-12-29T07:54:08.025Z,1.93
2022-12-29T07:56:54.626Z,1.80
2022-12-29T07:59:41.126Z,1.80
2022-12-29T08:02:27.899Z,2.20
2022-12-29T08:05:14.839Z,3.30
2022-12-29T08:08:01.650Z,2.93
2022-12-29T08:10:48.479Z,6.70
2022-12-29T08:13:35.329Z,6.80
2022-12-29T08:16:22.096Z,6.53
2022-12-29T08:19:08.676Z,4.50
2022-12-29T08:21:55.211Z,2.83
2022-12-29T08:24:41.785Z,4.00
2022-12-29T08:27:28.516Z,2.20
2022-12-29T08:30:15.091Z,2.17
2022-12-29T08:33:01.613Z,1.53
2022-12-29T08:35:48.270Z,1.60
2022-12-29T08:38:34.805Z,1.43
2022-12-29T08:41:21.340Z,1.73
2022-12-29T08:44:07.886Z,2.63
2022-12-29T08:46:54.427Z,1.80
2022-12-29T08:49:40.979Z,1.80
2022-12-29T08:52:27.524Z,3.30
2022-12-29T08:55:14.108Z,4.17
2022-12-29T08:58:00.648Z,2.03
2022-12-29T09:00:47.212Z,2.40
2022-12-29T09:06:40.903Z,3.73
2022-12-29T09:09:27.539Z,3.27
2022-12-29T09:12:14.130Z,3.67
2022-12-29T09:15:00.793Z,3.70
2022-12-29T09:17:47.362Z,3.90
2022-12-29T09:20:33.895Z,4.97
2022-12-29T09:23:20.464Z,5.97
2022-12-29T09:26:07.006Z,6.37
2022-12-29T09:28:53.582Z,5.83
2022-12-29T09:31:40.160Z,6.73
2022-12-29T09:34:26.851Z,8.00
2022-12-29T09:37:13.475Z,25.93
2022-12-29T09:39:59.987Z,12.67
2022-12-29T09:42:46.539Z,12.17
2022-12-29T09:45:33.071Z,7.63
2022-12-29T09:48:20.211Z,3.57
2022-12-29T09:51:06.931Z,3.57
2022-12-29T09:53:53.486Z,3.80
2022-12-29T09:56:40.002Z,4.10
2022-12-29T09:59:26.582Z,4.70
2022-12-29T10:02:13.263Z,4.53
2022-12-29T10:04:59.951Z,5.13
2022-12-29T10:07:46.533Z,4.37
2022-12-29T10:10:33.095Z,4.63
2022-12-29T10:13:21.656Z,4.00
2022-12-29T10:16:08.241Z,3.87
2022-12-29T10:18:54.803Z,4.23
2022-12-29T10:21:41.366Z,3.97
2022-12-29T10:24:27.870Z,4.40
2022-12-29T10:27:14.421Z,4.63
2022-12-29T10:30:01.005Z,4.80
2022-12-29T10:32:47.587Z,7.20
2022-12-29T10:35:34.074Z,4.83
2022-12-29T10:38:20.579Z,4.40
2022-12-29T10:41:07.055Z,4.87
2022-12-29T10:43:53.617Z,4.63
2022-12-29T10:46:40.151Z,4.43
2022-12-29T10:49:27.639Z,4.47
2022-12-29T10:52:14.154Z,5.07
2022-12-29T10:55:00.736Z,4.73
2022-12-29T10:57:47.297Z,16.70
2022-12-29T11:00:33.949Z,5.53
2022-12-29T11:03:20.509Z,5.57
2022-12-29T11:06:07.072Z,6.10
2022-12-29T11:08:53.578Z,6.27
2022-12-29T11:11:40.143Z,9.07
2022-12-29T11:14:26.671Z,7.10
2022-12-29T11:17:13.210Z,6.17
2022-12-29T11:19:59.735Z,6.23
2022-12-29T11:22:47.279Z,6.47
2022-12-29T11:25:34.854Z,6.23
2022-12-29T11:28:21.369Z,6.07
2022-12-29T11:31:07.895Z,5.10
2022-12-29T11:33:54.410Z,4.80
2022-12-29T11:36:40.961Z,4.83
2022-12-29T11:39:27.483Z,3.97
2022-12-29T11:42:14.037Z,5.17
2022-12-29T11:45:00.518Z,4.83
2022-12-29T11:47:47.062Z,4.67
2022-12-29T11:50:33.601Z,1.80
2022-12-29T11:53:20.150Z,2.90
2022-12-29T11:56:06.682Z,1.60
2022-12-29T11:58:53.257Z,1.30
2022-12-29T12:01:39.794Z,1.40
2022-12-29T12:04:26.442Z,1.43
2022-12-29T12:07:13.360Z,1.33
2022-12-29T12:10:06.547Z,1.43
2022-12-29T12:12:53.866Z,1.57
2022-12-29T12:15:45.294Z,1.77
2022-12-29T12:18:33.379Z,1.63
2022-12-29T12:21:19.904Z,2.33
2022-12-29T12:24:06.454Z,1.90
2022-12-29T12:26:53.007Z,1.87
2022-12-29T12:29:39.524Z,3.70
2022-12-29T12:32:27.009Z,2.90
2022-12-29T12:35:18.193Z,1.50
2022-12-29T12:38:08.028Z,1.20
2022-12-29T12:40:54.565Z,1.00
2022-12-29T12:43:42.315Z,1.77
2022-12-29T12:46:29.006Z,6.90
2022-12-29T12:49:15.597Z,3.70
2022-12-29T12:52:05.212Z,4.00
2022-12-29T12:54:52.294Z,2.30
2022-12-29T12:57:38.884Z,2.40
2022-12-29T13:00:25.418Z,1.93
2022-12-29T13:03:12.150Z,1.30
2022-12-29T13:05:58.842Z,1.37
2022-12-29T13:08:45.453Z,1.77
2022-12-29T13:11:31.999Z,2.20
2022-12-29T13:14:18.566Z,3.37
2022-12-29T13:17:05.058Z,1.83
2022-12-29T13:19:51.614Z,1.40
2022-12-29T13:22:38.137Z,1.13
2022-12-29T13:25:24.638Z,1.77
2022-12-29T13:28:11.214Z,2.20
2022-12-29T13:30:57.770Z,2.43
2022-12-29T13:33:44.451Z,4.30
2022-12-29T13:36:30.949Z,13.67
2022-12-29T13:39:20.840Z,2.80
2022-12-29T13:42:07.946Z,4.87
2022-12-29T13:44:54.475Z,3.17
2022-12-29T13:47:41.043Z,3.37
2022-12-29T13:50:27.579Z,6.53
2022-12-29T13:53:14.198Z,4.50
2022-12-29T13:56:00.736Z,5.30
2022-12-29T13:58:47.291Z,3.30
2022-12-29T14:01:33.918Z,3.77
2022-12-29T14:04:20.604Z,4.80
2022-12-29T14:07:07.177Z,3.83
2022-12-29T14:09:53.760Z,3.30
2022-12-29T14:12:40.395Z,3.57
2022-12-29T14:15:27.082Z,4.30
2022-12-29T14:18:13.611Z,4.40
2022-12-29T14:21:00.237Z,11.10
2022-12-29T14:23:46.760Z,31.43
2022-12-29T14:26:33.305Z,26.30
2022-12-29T14:29:19.840Z,14.07
2022-12-29T14:32:06.430Z,4.67
2022-12-29T14:34:53.065Z,11.43
2022-12-29T14:37:39.636Z,7.37
2022-12-29T14:40:26.171Z,3.07
2022-12-29T14:43:12.723Z,2.40
2022-12-29T14:45:59.261Z,2.70
2022-12-29T14:48:45.805Z,2.70
2022-12-29T14:51:32.332Z,1.73
2022-12-29T14:54:18.894Z,1.43
2022-12-29T14:57:05.411Z,1.50
2022-12-29T14:59:51.951Z,2.80
2022-12-29T15:02:38.539Z,2.00
2022-12-29T15:05:25.172Z,2.93
2022-12-29T15:08:11.698Z,3.73
2022-12-29T15:10:58.290Z,4.43
2022-12-29T15:13:44.847Z,4.50
2022-12-29T15:16:31.496Z,4.60
2022-12-29T15:19:19.952Z,3.50
2022-12-29T15:22:06.722Z,3.47
2022-12-29T15:24:53.239Z,3.50
2022-12-29T15:27:39.832Z,3.87
2022-12-29T15:30:26.366Z,3.43
2022-12-29T15:33:12.968Z,2.80
2022-12-29T15:35:59.502Z,3.13
2022-12-29T15:38:46.138Z,2.37
2022-12-29T15:41:32.667Z,2.80
2022-12-29T15:44:19.229Z,3.00
2022-12-29T15:47:05.756Z,2.67
2022-12-29T15:49:52.306Z,3.10
2022-12-29T15:52:38.830Z,3.10
2022-12-29T15:55:25.463Z,4.07
2022-12-29T15:58:11.983Z,3.10
2022-12-29T16:00:58.592Z,2.80
2022-12-29T16:03:45.208Z,2.50
2022-12-29T16:06:31.765Z,3.10
2022-12-29T16:09:18.326Z,3.70
2022-12-29T16:12:04.871Z,3.13
2022-12-29T16:14:51.428Z,2.83
2022-12-29T16:17:37.951Z,2.93
2022-12-29T16:20:24.494Z,3.77
2022-12-29T16:23:11.029Z,3.03
2022-12-29T16:25:57.585Z,4.67
2022-12-29T16:28:44.115Z,4.93
2022-12-29T16:31:30.776Z,3.50
2022-12-29T16:34:17.362Z,3.83
2022-12-29T16:37:04.037Z,4.77
2022-12-29T16:39:50.670Z,3.93
2022-12-29T16:42:37.448Z,5.50
2022-12-29T16:45:24.112Z,4.00
2022-12-29T16:48:10.675Z,5.23
2022-12-29T16:50:57.190Z,4.93
2022-12-29T16:53:43.738Z,4.50
2022-12-29T16:56:30.262Z,5.00
2022-12-29T16:59:16.800Z,4.50
2022-12-29T17:02:03.444Z,7.43
2022-12-29T17:04:50.103Z,8.10
2022-12-29T17:07:36.623Z,7.23
2022-12-29T17:10:23.191Z,7.00
2022-12-29T17:13:09.711Z,7.20
2022-12-29T17:15:56.329Z,6.73
2022-12-29T17:18:42.901Z,4.57
2022-12-29T17:21:29.443Z,4.80
2022-12-29T17:24:15.997Z,5.73
2022-12-29T17:27:02.514Z,6.60
2022-12-29T17:29:49.076Z,7.47
2022-12-29T17:32:35.604Z,7.30
2022-12-29T17:35:22.177Z,7.03
2022-12-29T17:38:08.702Z,5.93
2022-12-29T17:40:55.253Z,5.97
2022-12-29T17:43:41.777Z,6.37
2022-12-29T17:46:28.368Z,8.53
2022-12-29T17:49:14.922Z,6.97
2022-12-29T17:52:02.483Z,7.77
2022-12-29T17:54:49.020Z,7.40
2022-12-29T17:57:35.571Z,8.30
2022-12-29T18:00:22.102Z,8.20
2022-12-29T18:03:08.851Z,11.10
2022-12-29T18:05:55.508Z,15.87
2022-12-29T18:08:42.080Z,17.77
2022-12-29T18:11:28.733Z,14.50
2022-12-29T18:14:15.261Z,7.97
2022-12-29T18:17:01.816Z,7.00
2022-12-29T18:19:48.337Z,5.60
2022-12-29T18:22:34.897Z,4.30
2022-12-29T18:25:21.421Z,5.00
2022-12-29T18:28:07.982Z,4.80
2022-12-29T18:30:54.576Z,7.90
2022-12-29T18:33:41.206Z,6.97
2022-12-29T18:36:27.741Z,6.60
2022-12-29T18:39:14.290Z,5.77
2022-12-29T18:42:00.806Z,5.93
2022-12-29T18:44:47.419Z,7.13
2022-12-29T18:47:34.082Z,6.47
2022-12-29T18:50:20.816Z,6.40
2022-12-29T18:53:07.376Z,5.50
2022-12-29T18:55:53.937Z,5.80
2022-12-29T18:58:40.467Z,6.80
2022-12-29T19:01:27.117Z,6.23
2022-12-29T19:04:13.704Z,6.87
2022-12-29T19:07:00.267Z,6.10
2022-12-29T19:09:46.815Z,3.93
2022-12-29T19:12:33.351Z,4.47
2022-12-29T19:15:20.112Z,5.10
2022-12-29T19:18:42.530Z,4.70
2022-12-29T19:21:13.451Z,4.37
2022-12-29T19:24:00.016Z,4.50
2022-12-29T19:26:47.530Z,4.60
2022-12-29T19:29:34.064Z,4.63
2022-12-29T19:32:20.619Z,3.13
2022-12-29T19:35:07.141Z,3.80
2022-12-29T19:37:53.701Z,3.93
2022-12-29T19:40:40.214Z,4.10
2022-12-29T19:43:26.754Z,3.60
2022-12-29T19:46:13.301Z,3.80
2022-12-29T19:48:59.913Z,3.93
2022-12-29T19:51:46.441Z,5.20
2022-12-29T19:54:32.985Z,5.50
2022-12-29T19:57:19.504Z,5.57
2022-12-29T20:00:06.065Z,5.30
2022-12-29T20:02:52.729Z,5.37
2022-12-29T20:05:39.317Z,4.60
2022-12-29T20:08:26.833Z,5.30
2022-12-29T20:11:13.386Z,4.47
2022-12-29T20:13:59.897Z,4.53
2022-12-29T20:17:09.429Z,4.43
2022-12-29T20:19:52.926Z,3.90
2022-12-29T20:22:39.521Z,4.07
2022-12-29T20:28:32.594Z,4.10
2022-12-29T20:31:19.327Z,4.80
2022-12-29T20:34:06.029Z,3.93
2022-12-29T20:36:52.555Z,4.40
2022-12-29T20:39:39.283Z,4.87
2022-12-29T20:42:25.803Z,3.50
2022-12-29T20:45:12.359Z,3.53
2022-12-29T20:47:58.869Z,2.70
2022-12-29T20:50:45.430Z,3.27
2022-12-29T20:53:32.808Z,3.60
2022-12-29T20:56:19.379Z,2.97
2022-12-29T20:59:26.865Z,3.50
2022-12-29T21:02:12.644Z,2.93
2022-12-29T21:05:23.243Z,2.97
2022-12-29T21:08:05.913Z,3.17
2022-12-29T21:10:52.457Z,2.60
2022-12-29T21:13:39.008Z,2.90
2022-12-29T21:16:25.543Z,3.73
2022-12-29T21:19:12.121Z,4.40
2022-12-29T21:21:58.607Z,6.03
2022-12-29T21:24:45.158Z,5.50
2022-12-29T21:27:31.642Z,4.40
2022-12-29T21:30:18.148Z,4.33
2022-12-29T21:33:04.672Z,3.47
2022-12-29T21:35:51.224Z,4.43
2022-12-29T21:38:37.747Z,3.97
2022-12-29T21:41:24.314Z,3.93
2022-12-29T21:44:10.843Z,3.70
2022-12-29T21:46:57.400Z,2.83
2022-12-29T21:49:43.934Z,3.80
2022-12-29T21:52:30.477Z,2.60
2022-12-29T21:55:18.023Z,3.00
2022-12-29T21:58:04.556Z,3.40
2022-12-29T22:00:51.128Z,2.97
2022-12-29T22:03:37.893Z,3.47
2022-12-29T22:06:24.479Z,3.13
2022-12-29T22:09:11.097Z,3.30
2022-12-29T22:11:57.645Z,3.70
2022-12-29T22:14:44.168Z,3.87
2022-12-29T22:17:35.085Z,3.70
2022-12-29T22:20:24.197Z,3.33
2022-12-29T22:23:11.042Z,3.60
2022-12-29T22:25:57.758Z,2.97
2022-12-29T22:28:44.667Z,2.83
2022-12-29T22:31:31.468Z,2.87
2022-12-29T22:34:18.212Z,2.60
2022-12-29T22:37:05.896Z,2.43
2022-12-29T22:39:52.589Z,2.30
2022-12-29T22:42:39.118Z,3.07
2022-12-29T22:45:25.676Z,3.50
2022-12-29T22:48:12.224Z,4.10
2022-12-29T22:50:58.758Z,4.53
2022-12-29T22:53:45.302Z,3.67
2022-12-29T22:56:31.776Z,3.63
2022-12-29T22:59:18.314Z,3.43
2022-12-29T23:02:04.923Z,4.00
2022-12-29T23:05:07.144Z,6.10
2022-12-29T23:07:53.772Z,4.90
2022-12-29T23:10:40.312Z,2.40
2022-12-29T23:13:26.841Z,2.27
2022-12-29T23:16:13.507Z,2.10
2022-12-29T23:19:00.105Z,2.00
2022-12-29T23:21:46.650Z,2.17
2022-12-29T23:24:33.177Z,2.23
2022-12-29T23:27:19.739Z,2.80
2022-12-29T23:30:06.271Z,3.30
2022-12-29T23:32:52.794Z,2.83
2022-12-29T23:35:39.320Z,3.00
2022-12-29T23:38:25.876Z,2.90
2022-12-29T23:41:12.374Z,3.10
2022-12-29T23:43:58.920Z,2.90
2022-12-29T23:46:45.511Z,3.10
2022-12-29T23:49:33.063Z,2.60
2022-12-29T23:52:19.607Z,2.47
2022-12-29T23:55:06.151Z,3.03
2022-12-29T23:57:52.687Z,2.80
